Date,TemperatureHighF,TemperatureAvgF,TemperatureLowF,DewpointHighF,DewpointAvgF,DewpointLowF,HumidityHigh,HumidityAvg,HumidityLow,PressureMaxIn,PressureMinIn,WindSpeedMaxMPH,WindSpeedAvgMPH,GustSpeedMaxMPH,PrecipitationSumIn
2013-5-1,83.8,71.4,57.7,43.5,25.4,9.7,51,20,9,29.94,29.70,16,1,17,0.00
2013-5-2,88.2,71.7,55.0,46.0,35.5,16.2,51,28,13,30.01,29.94,10,1,10,0.00
2013-5-3,88.9,67.3,50.0,54.5,42.4,34.2,70,43,20,29.94,29.65,10,0,10,0.00
2013-5-4,86.9,69.6,52.9,52.7,43.4,27.3,90,44,13,29.65,29.42,14,1,14,0.00
2013-5-5,63.7,56.9,53.1,52.5,49.9,48.0,88,78,63,29.68,29.47,8,0,8,0.00
2013-5-6,67.5,57.1,47.7,55.8,51.2,45.9,97,81,58,29.84,29.68,7,0,7,0.00
2013-5-7,70.2,58.3,50.2,55.9,51.8,48.4,97,81,53,29.90,29.83,10,1,12,0.00
2013-5-8,63.3,53.5,48.4,54.7,50.1,46.4,96,89,71,30.00,29.89,15,1,15,0.00
2013-5-9,67.3,54.8,45.3,55.0,49.9,44.2,98,85,63,30.03,29.95,11,1,11,0.00
2013-5-10,76.5,58.6,47.5,60.6,52.1,46.0,97,81,55,30.04,29.95,10,0,10,0.00
2013-5-11,86.4,63.6,45.1,65.1,54.1,44.1,98,75,44,30.00,29.91,11,0,11,0.00
2013-5-12,81.0,62.6,46.6,61.5,52.4,45.3,98,72,44,29.99,29.88,13,1,13,0.00
2013-5-13,82.2,63.9,45.9,61.3,52.7,44.8,98,70,42,29.93,29.79,11,1,12,0.00
2013-5-14,83.1,65.2,50.2,57.6,51.4,45.3,94,64,35,29.82,29.74,11,0,11,0.00
2013-5-15,75.0,59.9,44.6,53.2,47.0,41.5,93,65,38,29.88,29.81,11,1,11,0.00
2013-5-16,70.5,59.5,48.4,56.8,50.2,45.5,90,72,50,29.87,29.80,15,1,15,0.00
2013-5-17,68.9,54.8,41.5,50.9,44.8,39.9,97,72,44,29.93,29.82,13,1,13,0.00
2013-5-18,78.4,60.8,41.7,52.7,46.6,40.1,97,64,32,29.98,29.92,15,1,17,0.00
2013-5-19,83.7,64.5,45.9,51.8,45.0,32.9,91,56,18,29.98,29.85,12,1,12,0.00
2013-5-20,87.3,71.2,51.4,49.1,43.6,37.2,84,41,19,29.86,29.75,17,1,17,0.00
2013-5-21,72.7,60.0,49.6,48.2,43.6,36.9,88,57,30,29.84,29.74,13,2,18,0.00
2013-5-22,67.5,55.0,38.7,41.5,34.9,26.6,75,49,25,29.89,29.75,13,1,13,0.00
2013-5-23,69.4,55.8,40.5,46.0,41.3,37.2,90,61,38,29.86,29.76,14,1,15,0.00
2013-5-24,73.2,56.3,39.0,46.8,42.8,37.0,95,64,36,29.85,29.77,11,1,11,0.00
2013-5-25,71.8,57.6,42.4,48.9,45.3,39.4,92,66,40,29.87,29.80,12,1,12,0.00
2013-5-26,70.3,58.0,46.0,54.3,49.4,44.1,97,75,54,29.96,29.87,16,1,17,0.00
2013-5-27,62.1,54.8,46.0,57.2,51.2,44.1,96,88,75,29.96,29.85,9,0,9,0.17
2013-5-28,72.0,60.5,54.7,58.6,54.9,51.6,98,83,59,29.86,29.78,12,0,12,0.20
2013-5-29,73.8,62.5,54.7,56.8,52.8,47.7,89,72,52,29.82,29.74,15,1,15,0.00
2013-5-30,79.0,62.8,44.8,51.4,46.6,40.8,95,60,27,29.84,29.78,13,1,13,0.00
2013-5-31,88.0,63.1,47.8,54.0,47.9,44.1,92,64,26,29.87,29.80,13,1,14,0.00